createdAt,value
2022-11-06T00:00:45.258Z,98794.72
2022-11-06T00:03:12.144Z,98794.84
2022-11-06T00:06:01.312Z,98798.31
2022-11-06T00:08:33.342Z,98801.91
2022-11-06T00:11:00.405Z,98803.84
2022-11-06T00:13:27.839Z,98816.13
2022-11-06T00:15:54.579Z,98809.16
2022-11-06T00:18:21.134Z,98810.09
2022-11-06T00:20:47.889Z,98819.72
2022-11-06T00:23:14.391Z,98819.00
2022-11-06T00:25:41.970Z,98816.22
2022-11-06T00:28:08.813Z,98820.69
2022-11-06T00:30:35.375Z,98821.63
2022-11-06T00:33:01.914Z,98824.28
2022-11-06T00:35:28.988Z,98824.28
2022-11-06T00:37:56.204Z,98806.63
2022-11-06T00:40:23.134Z,98809.78
2022-11-06T00:42:54.322Z,98828.84
2022-11-06T00:45:21.011Z,98814.97
2022-11-06T00:47:47.503Z,98828.84
2022-11-06T00:50:14.215Z,98809.47
2022-11-06T00:52:40.763Z,98814.97
2022-11-06T00:57:25.087Z,98821.88
2022-11-06T00:59:51.604Z,98824.53
2022-11-06T01:02:19.565Z,98826.31
2022-11-06T01:04:47.119Z,98832.47
2022-11-06T01:07:13.667Z,98828.94
2022-11-06T01:09:40.199Z,98828.13
2022-11-06T01:12:13.208Z,98825.47
2022-11-06T01:14:41.740Z,98825.47
2022-11-06T01:17:08.345Z,98828.94
2022-11-06T01:19:34.959Z,98822.91
2022-11-06T01:22:01.569Z,98825.56
2022-11-06T01:24:29.331Z,98800.72
2022-11-06T01:27:24.918Z,98821.13
2022-11-06T01:29:43.340Z,98806.84
2022-11-06T01:32:09.963Z,98820.25
2022-11-06T01:34:36.648Z,98823.91
2022-11-06T01:37:03.477Z,98825.69
2022-11-06T01:39:30.166Z,98825.69
2022-11-06T01:41:56.662Z,98825.69
2022-11-06T01:44:35.680Z,98824.84
2022-11-06T01:47:06.610Z,98827.69
2022-11-06T01:49:37.898Z,98830.13
2022-11-06T01:52:10.071Z,98831.91
2022-11-06T01:54:38.382Z,98829.28
2022-11-06T01:57:05.681Z,98815.13
2022-11-06T01:59:35.875Z,98831.09
2022-11-06T02:02:02.762Z,98828.44
2022-11-06T02:04:34.424Z,98825.91
2022-11-06T02:07:01.206Z,98828.56
2022-11-06T02:09:30.403Z,98829.50
2022-11-06T02:12:22.214Z,98826.88
2022-11-06T02:15:08.648Z,98827.69
2022-11-06T02:17:52.118Z,98829.63
2022-11-06T02:20:44.891Z,98832.28
2022-11-06T02:23:44.167Z,98842.88
2022-11-06T02:26:34.158Z,98829.72
2022-11-06T02:29:07.820Z,98837.66
2022-11-06T02:31:36.731Z,98820.72
2022-11-06T02:34:10.067Z,98836.81
2022-11-06T02:36:56.450Z,98836.81
2022-11-06T02:39:27.198Z,98841.25
2022-11-06T02:41:57.752Z,98840.41
2022-11-06T02:44:28.755Z,98844.75
2022-11-06T02:47:06.770Z,98843.06
2022-11-06T02:50:01.502Z,98843.91
2022-11-06T02:52:38.100Z,98845.72
2022-11-06T02:55:11.265Z,98844.88
2022-11-06T02:57:42.184Z,98844.88
2022-11-06T03:00:15.771Z,98836.09
2022-11-06T03:02:53.638Z,98854.59
2022-11-06T03:05:24.841Z,98855.56
2022-11-06T03:07:59.348Z,98847.63
2022-11-06T03:10:32.529Z,98850.25
2022-11-06T03:13:09.689Z,98843.19
2022-11-06T03:15:45.198Z,98846.78
2022-11-06T03:18:43.416Z,98838.00
2022-11-06T03:21:25.894Z,98845.94
2022-11-06T03:23:59.213Z,98842.44
2022-11-06T03:26:38.486Z,98851.25
2022-11-06T03:29:25.822Z,98846.00
2022-11-06T03:32:01.606Z,98849.53
2022-11-06T03:34:33.093Z,98845.16
2022-11-06T03:37:07.647Z,98846.94
2022-11-06T03:39:42.560Z,98845.16
2022-11-06T03:42:16.830Z,98852.25
2022-11-06T03:44:49.521Z,98854.06
2022-11-06T03:47:24.331Z,98861.16
2022-11-06T03:49:57.627Z,98860.28
2022-11-06T03:52:30.690Z,98868.25
2022-11-06T03:55:07.807Z,98853.75
2022-11-06T03:57:50.587Z,98870.06
2022-11-06T04:00:20.393Z,98867.41
2022-11-06T04:02:52.451Z,98866.53
2022-11-06T04:05:22.753Z,98880.63
2022-11-06T04:08:13.016Z,98882.41
2022-11-06T04:11:03.597Z,98878.31
2022-11-06T04:13:52.555Z,98881.69
2022-11-06T04:16:19.269Z,98882.53
2022-11-06T04:18:45.792Z,98886.13
2022-11-06T04:21:34.353Z,98887.94
2022-11-06T04:24:34.550Z,98887.06
2022-11-06T04:27:13.467Z,98886.25
2022-11-06T04:30:08.026Z,98882.84
2022-11-06T04:32:40.421Z,98889.00
2022-11-06T04:35:15.796Z,98890.91
2022-11-06T04:38:30.474Z,98892.59
2022-11-06T04:41:06.151Z,98889.97
2022-11-06T04:43:50.632Z,98889.13
2022-11-06T04:46:23.536Z,98888.25
2022-11-06T04:48:50.934Z,98887.44
2022-11-06T04:51:22.682Z,98891.78
2022-11-06T04:53:52.094Z,98886.56
2022-11-06T04:56:35.268Z,98884.78
2022-11-06T04:59:07.210Z,98887.44
2022-11-06T05:01:34.339Z,98888.25
2022-11-06T05:04:01.011Z,98892.78
2022-11-06T05:06:30.150Z,98891.03
2022-11-06T05:08:58.931Z,98894.50
2022-11-06T05:11:25.460Z,98895.56
2022-11-06T05:13:52.041Z,98897.25
2022-11-06T05:16:18.755Z,98907.84
2022-11-06T05:18:45.253Z,98908.69
2022-11-06T05:21:30.923Z,98913.97
2022-11-06T05:23:57.500Z,98906.16
2022-11-06T05:26:24.025Z,98905.31
2022-11-06T05:28:50.613Z,98878.84
2022-11-06T05:31:17.354Z,98878.84
2022-11-06T05:33:43.878Z,98912.38
2022-11-06T05:36:10.635Z,98906.25
2022-11-06T05:38:37.166Z,98907.09
2022-11-06T05:41:03.763Z,98910.69
2022-11-06T05:43:30.939Z,98908.03
2022-11-06T05:45:57.575Z,98908.16
2022-11-06T05:48:24.219Z,98913.34
2022-11-06T05:50:50.787Z,98838.75
2022-11-06T05:53:17.352Z,98922.25
2022-11-06T05:55:49.742Z,98921.38
2022-11-06T05:58:16.610Z,98929.31
2022-11-06T06:00:43.249Z,98937.25
2022-11-06T06:03:10.548Z,98932.91
2022-11-06T06:05:37.278Z,98930.28
2022-11-06T06:08:04.906Z,98932.09
2022-11-06T06:10:31.398Z,98937.38
2022-11-06T06:12:57.979Z,98940.84
2022-11-06T06:15:24.570Z,98941.84
2022-11-06T06:17:51.115Z,98943.50
2022-11-06T06:20:17.782Z,98944.47
2022-11-06T06:22:53.230Z,98934.84
2022-11-06T06:25:22.899Z,98948.06
2022-11-06T06:27:50.125Z,98950.72
2022-11-06T06:30:16.927Z,98948.06
2022-11-06T06:32:43.986Z,98948.91
2022-11-06T06:35:10.849Z,98950.59
2022-11-06T06:37:37.833Z,98956.00
2022-11-06T06:40:05.531Z,98946.03
2022-11-06T06:42:32.231Z,98966.47
2022-11-06T06:44:58.728Z,98972.72
2022-11-06T06:47:25.312Z,98968.28
2022-11-06T06:49:51.802Z,98965.66
2022-11-06T06:52:18.350Z,98963.00
2022-11-06T06:54:45.291Z,98965.66
2022-11-06T06:57:11.973Z,98968.28
2022-11-06T06:59:38.492Z,98951.34
2022-11-06T07:02:05.203Z,98963.00
2022-11-06T07:04:31.775Z,98975.25
2022-11-06T07:06:58.336Z,98960.34
2022-11-06T07:09:25.008Z,98959.50
2022-11-06T07:11:51.577Z,98967.31
2022-11-06T07:14:18.163Z,98976.22
2022-11-06T07:16:47.381Z,98973.47
2022-11-06T07:19:17.647Z,98969.97
2022-11-06T07:21:44.139Z,98965.53
2022-11-06T07:26:36.139Z,98959.94
2022-11-06T07:29:02.763Z,98954.41
2022-11-06T07:31:31.267Z,98953.34
2022-11-06T07:33:57.945Z,98955.81
2022-11-06T07:36:24.588Z,98951.16
2022-11-06T07:38:51.205Z,98950.16
2022-11-06T07:41:17.709Z,98952.66
2022-11-06T07:43:44.817Z,98951.69
2022-11-06T07:46:12.786Z,98952.41
2022-11-06T07:48:39.832Z,98948.19
2022-11-06T07:51:09.399Z,98957.81
2022-11-06T07:53:36.430Z,98960.47
2022-11-06T07:56:03.069Z,98954.22
2022-11-06T07:58:29.878Z,98950.84
2022-11-06T08:00:58.538Z,98955.41
2022-11-06T08:03:26.769Z,98948.50
2022-11-06T08:05:53.342Z,98952.22
2022-11-06T08:08:19.952Z,98954.09
2022-11-06T08:10:47.668Z,98962.16
2022-11-06T08:13:16.864Z,98962.25
2022-11-06T08:15:43.547Z,98954.28
2022-11-06T08:18:11.496Z,98954.41
2022-11-06T08:20:39.333Z,98953.59
2022-11-06T08:23:08.803Z,98954.53
2022-11-06T08:25:35.439Z,98958.00
2022-11-06T08:28:03.052Z,98952.81
2022-11-06T08:30:30.819Z,98961.53
2022-11-06T08:33:02.784Z,98951.13
2022-11-06T08:35:29.765Z,98950.94
2022-11-06T08:37:56.691Z,98956.22
2022-11-06T08:40:29.419Z,98947.41
2022-11-06T08:43:05.628Z,98949.13
2022-11-06T08:45:32.980Z,98953.59
2022-11-06T08:48:04.481Z,98955.47
2022-11-06T08:50:32.080Z,98946.59
2022-11-06T08:55:21.578Z,98944.06
2022-11-06T08:57:48.155Z,98945.84
2022-11-06T09:00:15.613Z,98960.75
2022-11-06T09:02:42.191Z,98952.81
2022-11-06T09:05:09.126Z,98961.72
2022-11-06T09:07:35.767Z,98961.59
2022-11-06T09:10:02.467Z,98961.72
2022-11-06T09:12:29.040Z,98958.13
2022-11-06T09:14:55.632Z,98954.63
2022-11-06T09:17:24.318Z,98955.47
2022-11-06T09:19:51.697Z,98935.34
2022-11-06T09:22:18.979Z,98898.84
2022-11-06T09:25:02.735Z,98953.78
2022-11-06T09:27:31.075Z,98957.38
2022-11-06T09:29:58.145Z,98958.22
2022-11-06T09:32:26.098Z,98949.34
2022-11-06T09:34:52.654Z,98952.00
2022-11-06T09:37:19.260Z,98953.66
2022-11-06T09:39:45.743Z,98957.16
2022-11-06T09:42:46.071Z,98952.00
2022-11-06T09:45:17.813Z,98945.84
2022-11-06T09:47:50.979Z,98952.19
2022-11-06T09:50:26.702Z,98954.63
2022-11-06T09:53:05.608Z,98952.00
2022-11-06T09:55:41.347Z,98957.06
2022-11-06T09:58:16.810Z,98959.59
2022-11-06T10:00:43.825Z,98950.81
2022-11-06T10:03:23.867Z,98956.94
2022-11-06T10:05:53.158Z,98952.41
2022-11-06T10:08:26.939Z,98956.75
2022-11-06T10:11:05.733Z,98952.28
2022-11-06T10:14:00.121Z,98945.84
2022-11-06T10:16:46.834Z,98943.09
2022-11-06T10:19:25.530Z,98940.25
2022-11-06T10:22:07.244Z,98941.84
2022-11-06T10:24:57.502Z,98939.00
2022-11-06T10:27:32.214Z,98936.22
2022-11-06T10:30:13.015Z,98936.13
2022-11-06T10:32:52.920Z,98933.25
2022-11-06T10:35:24.670Z,98926.91
2022-11-06T10:37:58.319Z,98920.66
2022-11-06T10:42:56.159Z,98919.41
2022-11-06T10:45:24.694Z,98916.63
2022-11-06T10:48:10.845Z,98908.44
2022-11-06T10:51:04.578Z,98903.06
2022-11-06T10:53:37.143Z,98896.78
2022-11-06T10:56:28.623Z,98892.88
2022-11-06T10:58:55.267Z,98892.88
2022-11-06T11:01:23.149Z,98886.50
2022-11-06T11:03:51.547Z,98885.44
2022-11-06T11:06:18.595Z,98887.97
2022-11-06T11:08:49.193Z,98882.47
2022-11-06T11:11:15.824Z,98888.50
2022-11-06T11:13:57.470Z,98884.66
2022-11-06T11:16:28.248Z,98880.00
2022-11-06T11:18:54.924Z,98870.84
2022-11-06T11:21:27.659Z,98869.78
2022-11-06T11:24:00.486Z,98873.91
2022-11-06T11:26:29.904Z,98868.50
2022-11-06T11:29:03.223Z,98867.44
2022-11-06T11:31:33.070Z,98855.13
2022-11-06T11:34:05.010Z,98862.75
2022-11-06T11:36:57.737Z,98861.78
2022-11-06T11:39:42.616Z,98845.59
2022-11-06T11:42:27.689Z,98866.06
2022-11-06T11:45:16.435Z,98862.44
2022-11-06T11:47:48.828Z,98843.38
2022-11-06T11:50:26.801Z,98850.91
2022-11-06T11:53:14.059Z,98854.25
2022-11-06T11:55:44.752Z,98849.81
2022-11-06T11:58:23.986Z,98847.16
2022-11-06T12:00:54.860Z,98847.03
2022-11-06T12:05:44.937Z,98845.22
2022-11-06T12:08:23.732Z,98853.31
2022-11-06T12:10:50.578Z,98845.34
2022-11-06T12:13:22.535Z,98841.00
2022-11-06T12:16:13.715Z,98833.31
2022-11-06T12:18:55.998Z,98838.72
2022-11-06T12:21:33.246Z,98837.94
2022-11-06T12:24:25.762Z,98832.78
2022-11-06T12:26:57.945Z,98830.22
2022-11-06T12:29:33.601Z,98834.69
2022-11-06T12:32:02.980Z,98837.31
2022-11-06T12:34:44.831Z,98828.53
2022-11-06T12:37:24.203Z,98831.19
2022-11-06T12:40:18.454Z,98842.63
2022-11-06T12:43:20.773Z,98835.75
2022-11-06T12:46:08.818Z,98845.59
2022-11-06T12:48:35.634Z,98840.44
2022-11-06T12:51:29.911Z,98840.44
2022-11-06T12:54:24.918Z,98846.69
2022-11-06T12:57:14.340Z,98840.44
2022-11-06T13:00:04.631Z,98841.38
2022-11-06T13:04:59.007Z,98844.78
2022-11-06T13:07:47.159Z,98843.19
2022-11-06T13:10:28.878Z,98846.56
2022-11-06T13:13:30.925Z,98850.19
2022-11-06T13:16:24.265Z,98849.56
2022-11-06T13:19:00.843Z,98852.22
2022-11-06T13:21:39.305Z,98850.53
2022-11-06T13:24:25.207Z,98841.00
2022-11-06T13:27:01.611Z,98839.19
2022-11-06T13:29:30.222Z,98845.44
2022-11-06T13:32:04.839Z,98835.09
2022-11-06T13:34:38.037Z,98841.97
2022-11-06T13:39:29.792Z,98839.31
2022-11-06T13:41:58.004Z,98848.09
2022-11-06T13:44:25.450Z,98841.09
2022-11-06T13:46:54.765Z,98841.00
2022-11-06T13:49:39.683Z,98838.44
2022-11-06T13:52:35.501Z,98837.59
2022-11-06T13:55:14.327Z,98833.25
2022-11-06T13:58:00.049Z,98829.78
2022-11-06T14:00:41.803Z,98826.28
2022-11-06T14:03:48.179Z,98825.31
2022-11-06T14:08:48.771Z,98829.53
2022-11-06T14:11:28.351Z,98831.13
2022-11-06T14:14:21.230Z,98831.03
2022-11-06T14:17:09.437Z,98820.19
2022-11-06T14:19:36.614Z,98819.22
2022-11-06T14:22:08.853Z,98809.38
2022-11-06T14:24:39.983Z,98809.38
2022-11-06T14:27:23.221Z,98806.13
2022-11-06T14:30:15.419Z,98816.91
2022-11-06T14:32:48.072Z,98811.00
2022-11-06T14:35:37.959Z,98813.66
2022-11-06T14:38:28.970Z,98807.53
2022-11-06T14:40:56.655Z,98806.91
2022-11-06T14:43:31.662Z,98801.72
2022-11-06T14:46:00.568Z,98800.16
2022-11-06T14:48:39.474Z,98799.41
2022-11-06T14:53:37.719Z,98779.44
2022-11-06T14:56:08.134Z,98795.50
2022-11-06T14:58:39.043Z,98792.97
2022-11-06T15:01:08.731Z,98795.72
2022-11-06T15:03:48.798Z,98792.38
2022-11-06T15:06:16.178Z,98798.59
2022-11-06T15:08:45.913Z,98792.56
2022-11-06T15:13:26.743Z,98786.56
2022-11-06T15:16:05.823Z,98779.56
2022-11-06T15:18:36.251Z,98780.53
2022-11-06T15:21:07.946Z,98779.69
2022-11-06T15:24:01.292Z,98781.72
2022-11-06T15:26:37.054Z,98778.94
2022-11-06T15:29:19.509Z,98780.66
2022-11-06T15:31:50.637Z,98783.28
2022-11-06T15:34:26.210Z,98767.84
2022-11-06T15:39:29.178Z,98785.69
2022-11-06T15:41:56.674Z,98780.28
2022-11-06T15:44:25.039Z,98782.84
2022-11-06T15:46:59.123Z,98785.38
2022-11-06T15:49:26.210Z,98784.41
2022-11-06T15:52:02.303Z,98779.00
2022-11-06T15:54:31.639Z,98778.25
2022-11-06T15:57:00.646Z,98782.72
2022-11-06T15:59:29.960Z,98761.38
2022-11-06T16:01:56.584Z,98781.03
2022-11-06T16:04:25.682Z,98773.19
2022-11-06T16:06:54.387Z,98767.03
2022-11-06T16:09:23.901Z,98765.38
2022-11-06T16:11:52.027Z,98764.50
2022-11-06T16:14:20.326Z,98757.53
2022-11-06T16:16:55.749Z,98751.41
2022-11-06T16:19:23.254Z,98758.50
2022-11-06T16:21:58.058Z,98743.56
2022-11-06T16:24:28.891Z,98744.53
2022-11-06T16:26:55.998Z,98745.38
2022-11-06T16:29:29.233Z,98743.66
2022-11-06T16:32:08.453Z,98743.66
2022-11-06T16:34:38.122Z,98741.13
2022-11-06T16:37:21.480Z,98745.47
2022-11-06T16:39:50.998Z,98736.72
2022-11-06T16:42:27.723Z,98740.31
2022-11-06T16:45:19.463Z,98735.00
2022-11-06T16:48:11.010Z,98739.34
2022-11-06T16:50:53.015Z,98736.72
2022-11-06T16:53:21.967Z,98736.72
2022-11-06T16:56:05.803Z,98741.13
2022-11-06T16:58:48.559Z,98734.88
2022-11-06T17:01:20.415Z,98733.19
2022-11-06T17:03:54.529Z,98730.44
2022-11-06T17:06:30.825Z,98733.94
2022-11-06T17:09:26.375Z,98733.06
2022-11-06T17:11:57.455Z,98715.13
2022-11-06T17:14:24.837Z,98728.66
2022-11-06T17:16:57.739Z,98725.03
2022-11-06T17:19:25.930Z,98738.16
2022-11-06T17:21:52.625Z,98728.41
2022-11-06T17:24:37.073Z,98728.53
2022-11-06T17:27:05.182Z,98711.66
2022-11-06T17:29:34.515Z,98726.75
2022-11-06T17:32:01.063Z,98732.63
2022-11-06T17:34:27.584Z,98722.91
2022-11-06T17:36:54.476Z,98728.94
2022-11-06T17:39:22.476Z,98727.00
2022-11-06T17:41:49.095Z,98714.63
2022-11-06T17:44:16.894Z,98722.44
2022-11-06T17:46:45.638Z,98724.13
2022-11-06T17:49:17.460Z,98725.81
2022-11-06T17:51:52.730Z,98731.00
2022-11-06T17:54:25.340Z,98728.22
2022-11-06T17:56:53.745Z,98729.81
2022-11-06T17:59:20.972Z,98726.19
2022-11-06T18:01:47.971Z,98719.94
2022-11-06T18:04:14.721Z,98718.25
2022-11-06T18:06:44.741Z,98711.50
2022-11-06T18:09:11.436Z,98731.03
2022-11-06T18:11:38.528Z,98719.63
2022-11-06T18:14:05.070Z,98715.03
2022-11-06T18:16:33.907Z,98702.97
2022-11-06T18:19:01.549Z,98713.13
2022-11-06T18:21:28.119Z,98709.84
2022-11-06T18:23:54.750Z,98715.75
2022-11-06T18:26:21.660Z,98720.81
2022-11-06T18:28:49.595Z,98710.94
2022-11-06T18:31:16.226Z,98708.31
2022-11-06T18:33:43.130Z,98709.16
2022-11-06T18:36:11.203Z,98715.19
2022-11-06T18:38:38.023Z,98712.53
2022-11-06T18:41:17.164Z,98706.28
2022-11-06T18:43:44.442Z,98701.31
2022-11-06T18:46:14.281Z,98704.38
2022-11-06T18:48:41.285Z,98705.19
2022-11-06T18:51:10.172Z,98709.16
2022-11-06T18:53:38.687Z,98706.28
2022-11-06T18:56:08.797Z,98703.50
2022-11-06T18:58:35.548Z,98708.78
2022-11-06T19:01:14.037Z,98706.16
2022-11-06T19:03:41.575Z,98700.97
2022-11-06T19:06:11.335Z,98701.94
2022-11-06T19:08:38.136Z,98707.22
2022-11-06T19:11:05.935Z,98696.75
2022-11-06T19:13:32.928Z,98686.00
2022-11-06T19:15:59.911Z,98696.97
2022-11-06T19:18:30.363Z,98694.31
2022-11-06T19:20:57.170Z,98690.00
2022-11-06T19:23:24.371Z,98691.78
2022-11-06T19:26:04.326Z,98696.38
2022-11-06T19:28:37.890Z,98695.53
2022-11-06T19:31:04.661Z,98681.44
2022-11-06T19:33:31.253Z,98684.94
2022-11-06T19:36:00.736Z,98679.75
2022-11-06T19:38:28.291Z,98682.41
2022-11-06T19:41:00.456Z,98679.03
2022-11-06T19:43:35.721Z,98681.66
2022-11-06T19:46:04.208Z,98676.50
2022-11-06T19:48:32.181Z,98673.00
2022-11-06T19:51:00.231Z,98675.66
2022-11-06T19:53:27.715Z,98676.63
2022-11-06T19:55:54.420Z,98674.69
2022-11-06T19:58:23.666Z,98676.50
2022-11-06T20:00:53.292Z,98672.03
2022-11-06T20:03:19.938Z,98668.56
2022-11-06T20:05:46.675Z,98656.72
2022-11-06T20:08:13.631Z,98663.25
2022-11-06T20:10:41.471Z,98663.13
2022-11-06T20:13:08.655Z,98671.06
2022-11-06T20:15:35.813Z,98658.69
2022-11-06T20:18:02.427Z,98662.16
2022-11-06T20:20:34.749Z,98663.00
2022-11-06T20:23:02.860Z,98652.53
2022-11-06T20:25:30.690Z,98658.69
2022-11-06T20:27:57.328Z,98659.66
2022-11-06T20:30:24.154Z,98663.25
2022-11-06T20:32:50.907Z,98657.13
2022-11-06T20:35:19.235Z,98665.06
2022-11-06T20:37:45.866Z,98660.72
2022-11-06T20:40:13.068Z,98649.53
2022-11-06T20:42:39.814Z,98659.03
2022-11-06T20:45:07.499Z,98646.63
2022-11-06T20:47:34.131Z,98644.94
2022-11-06T20:50:00.659Z,98647.56
2022-11-06T20:52:27.271Z,98644.09
2022-11-06T20:54:53.796Z,98643.28
2022-11-06T20:57:20.378Z,98621.19
2022-11-06T20:59:46.948Z,98639.88
2022-11-06T21:02:13.797Z,98648.78
2022-11-06T21:04:40.962Z,98649.75
2022-11-06T21:07:10.020Z,98642.75
2022-11-06T21:09:36.571Z,98649.75
2022-11-06T21:12:03.436Z,98646.97
2022-11-06T21:14:31.267Z,98657.47
2022-11-06T21:16:58.306Z,98651.22
2022-11-06T21:19:25.003Z,98644.94
2022-11-06T21:21:51.739Z,98650.13
2022-11-06T21:24:18.269Z,98656.13
2022-11-06T21:26:44.863Z,98663.13
2022-11-06T21:29:12.054Z,98655.06
2022-11-06T21:31:42.705Z,98655.91
2022-11-06T21:34:15.404Z,98648.81
2022-11-06T21:36:41.930Z,98653.16
2022-11-06T21:39:12.376Z,98646.06
2022-11-06T21:41:39.374Z,98641.59
2022-11-06T21:44:06.923Z,98638.00
2022-11-06T21:46:34.179Z,98655.44
2022-11-06T21:49:00.943Z,98623.53
2022-11-06T21:51:30.281Z,98635.94
2022-11-06T21:54:16.367Z,98636.66
2022-11-06T21:56:44.347Z,98632.22
2022-11-06T21:59:13.903Z,98639.31
2022-11-06T22:01:41.034Z,98635.69
2022-11-06T22:04:08.111Z,98640.03
2022-11-06T22:06:34.791Z,98632.09
2022-11-06T22:09:02.708Z,98635.47
2022-11-06T22:11:32.535Z,98626.66
2022-11-06T22:14:01.858Z,98631.88
2022-11-06T22:16:32.584Z,98632.69
2022-11-06T22:18:59.754Z,98634.41
2022-11-06T22:21:28.516Z,98634.41
2022-11-06T22:23:56.051Z,98634.41
2022-11-06T22:26:24.803Z,98630.78
2022-11-06T22:28:56.417Z,98627.19
2022-11-06T22:31:24.111Z,98626.19
2022-11-06T22:33:53.897Z,98623.66
2022-11-06T22:36:21.819Z,98617.53
2022-11-06T22:38:49.337Z,98615.84
2022-11-06T22:41:21.395Z,98611.38
2022-11-06T22:43:48.052Z,98613.94
2022-11-06T22:46:18.193Z,98614.75
2022-11-06T22:48:45.752Z,98609.59
2022-11-06T22:51:15.368Z,98617.63
2022-11-06T22:53:42.411Z,98611.63
2022-11-06T22:56:09.550Z,98611.75
2022-11-06T22:58:36.090Z,98607.41
2022-11-06T23:01:02.684Z,98596.09
2022-11-06T23:05:48.082Z,98604.16
2022-11-06T23:08:15.350Z,98599.09
2022-11-06T23:10:42.427Z,98592.97
2022-11-06T23:13:10.220Z,98594.75
2022-11-06T23:15:37.663Z,98585.13
2022-11-06T23:18:04.867Z,98588.00
2022-11-06T23:20:33.294Z,98582.84
2022-11-06T23:23:00.769Z,98585.63
2022-11-06T23:25:28.360Z,98588.34
2022-11-06T23:27:55.004Z,98578.72
2022-11-06T23:30:21.547Z,98578.84
2022-11-06T23:32:48.100Z,98580.66
2022-11-06T23:35:16.945Z,98582.56
2022-11-06T23:37:43.963Z,98587.13
2022-11-06T23:40:11.478Z,98582.81
2022-11-06T23:42:38.331Z,98582.91
2022-11-06T23:45:23.850Z,98584.75
2022-11-06T23:47:50.959Z,98582.31
2022-11-06T23:50:17.960Z,98584.13
2022-11-06T23:52:45.210Z,98580.75
2022-11-06T23:55:12.298Z,98579.91
2022-11-06T23:57:38.992Z,98573.53
